Hanjin Gwanseum — VRNY4 — position and weather

sailwx.info

Track history (hours):
 
Tides and Currents Weather Stations Pressure Air Temp Water Temp Dewpoint Dewpoint Depression Visibility Wind Speed Wind Dir Waves Ship Positions

Hanjin Gwanseum

Last reported at 2017-Dec-15 22:58 UTC. Time now 2017-Dec-16 11:23 UTC.
Position N 36°49' W 075°47'.

Length 337 m; draft 11.8 m.

Type: Ship (hazmat cat D). MMSI: 477699600.

Date/timePositionNaut miles runAvg speedWind from/ knotsBaromVisibWave heightAir tempDewpointWater temp
2017-Dec-15 22:58N 36°49' W 075°47'5 9.8
2017-Dec-15 22:27N 36°52' W 075°52'4 9.9
2017-Dec-15 22:00N 36°55' W 075°56'5 9.8
2017-Dec-15 21:31N 36°57' W 076°01'815.0
2017-Dec-15 21:00N 36°59' W 076°10'714.0
2017-Dec-15 20:30N 36°59' W 076°19'4 7.3
2017-Dec-15 20:00N 36°56' W 076°20'0 0.2
2017-Dec-15 19:30N 36°56' W 076°20'0 0.0
2017-Dec-15 19:00N 36°56' W 076°20'0 0.0
2017-Dec-15 18:30N 36°56' W 076°20'0 0.0
2017-Dec-15 18:00N 36°56' W 076°20'0 0.0
2017-Dec-15 17:30N 36°56' W 076°20'0 0.0
2017-Dec-15 17:00N 36°56' W 076°20'0 0.0
2017-Dec-15 16:30N 36°56' W 076°20'0 0.0
2017-Dec-15 16:00N 36°56' W 076°20'0 0.0
2017-Dec-15 15:30N 36°56' W 076°20'0 0.0
2017-Dec-15 15:00N 36°56' W 076°20'0 0.0
2017-Dec-15 14:30N 36°56' W 076°20'0 0.0
2017-Dec-15 14:00N 36°56' W 076°20'0 0.0
2017-Dec-15 13:30N 36°56' W 076°20'0 0.0
2017-Dec-15 13:00N 36°56' W 076°20'0 0.0
2017-Dec-15 12:27N 36°56' W 076°20'0 0.0
2017-Dec-15 12:00N 36°56' W 076°20'0 0.0
2017-Dec-15 11:30N 36°56' W 076°20'0 0.0
2017-Dec-15 11:00N 36°56' W 076°20'0 0.0
2017-Dec-15 10:30N 36°56' W 076°20'0 0.0
2017-Dec-15 10:00N 36°56' W 076°20'0 0.0
2017-Dec-15 09:30N 36°56' W 076°20'0 0.0
2017-Dec-15 09:00N 36°56' W 076°20'0 0.0
2017-Dec-15 08:30N 36°56' W 076°20'0 0.0
2017-Dec-15 08:00N 36°56' W 076°20'0 0.0
2017-Dec-15 07:30N 36°56' W 076°20'0 0.0
2017-Dec-15 06:57N 36°56' W 076°20'0 0.0
2017-Dec-15 06:30N 36°56' W 076°20'0 0.0
2017-Dec-15 06:00N 36°56' W 076°20'0 0.0
2017-Dec-15 05:30N 36°56' W 076°20'0 0.0
2017-Dec-15 05:00N 36°56' W 076°20'0 0.0
2017-Dec-15 04:30N 36°56' W 076°20'0 0.0
2017-Dec-15 04:00N 36°56' W 076°20'0 0.0
2017-Dec-15 02:30N 36°56' W 076°20'6 4.3
2017-Dec-15 01:00N 37°00' W 076°14'816.4
2017-Dec-15 00:31N 36°58' W 076°05'18915.8
2017-Dec-14 12:32N 39°37' W 073°53'122.5
2017-Dec-14 12:30N 39°38' W 073°53'1222.3
2017-Dec-14 11:58N 39°50' W 073°53'2415.0
2017-Dec-14 10:23N 40°13' W 073°49'4 9.8
2017-Dec-14 09:57N 40°17' W 073°49'4 9.8
2017-Dec-14 09:30N 40°22' W 073°49'5 9.2
2017-Dec-14 09:00N 40°26' W 073°49'4 9.1
2017-Dec-14 08:30N 40°29' W 073°54'510.6
2017-Dec-14 08:00N 40°31' W 074°00'713.1
2017-Dec-14 07:30N 40°37' W 074°03'2 4.6
2017-Dec-14 07:00N 40°40' W 074°04'1 2.1
2017-Dec-14 06:29N 40°40' W 074°05'0 0.0
2017-Dec-14 05:59N 40°40' W 074°05'0 0.0
2017-Dec-14 05:29N 40°40' W 074°05'0 0.0
2017-Dec-14 04:59N 40°40' W 074°05'0 0.0
2017-Dec-14 04:29N 40°40' W 074°05'0 0.0
2017-Dec-14 03:59N 40°40' W 074°05'0 0.0
2017-Dec-14 03:29N 40°40' W 074°05'0 0.0
2017-Dec-14 02:56N 40°40' W 074°05'0 0.0
2017-Dec-14 02:29N 40°40' W 074°05'0 0.0
2017-Dec-14 01:59N 40°40' W 074°05'0 0.0
2017-Dec-14 01:23N 40°40' W 074°05'0 0.0
2017-Dec-14 00:59N 40°40' W 074°05'0 0.0
2017-Dec-14 00:29N 40°40' W 074°05'0 0.0
2017-Dec-13 23:59N 40°40' W 074°05'0 0.0
2017-Dec-13 23:29N 40°40' W 074°05'0 0.0
2017-Dec-13 22:59N 40°40' W 074°05'0 0.0
2017-Dec-13 22:26N 40°40' W 074°05'0 0.0
2017-Dec-13 21:59N 40°40' W 074°05'0 0.0
2017-Dec-13 21:29N 40°40' W 074°05'0 0.0
2017-Dec-13 20:59N 40°40' W 074°05'0 0.0
2017-Dec-13 20:29N 40°40' W 074°05'0 0.0
2017-Dec-13 19:59N 40°40' W 074°05'0 0.0
2017-Dec-13 19:29N 40°40' W 074°05'0 0.0
2017-Dec-13 18:59N 40°40' W 074°05'0 0.0
2017-Dec-13 18:23N 40°40' W 074°05'0 0.0
2017-Dec-13 17:56N 40°40' W 074°05'0 0.0
2017-Dec-13 17:29N 40°40' W 074°05'0 0.0
2017-Dec-13 16:56N 40°40' W 074°05'0 0.0
2017-Dec-13 16:29N 40°40' W 074°05'0 0.0
2017-Dec-13 15:59N 40°40' W 074°05'0 0.0
2017-Dec-13 15:29N 40°40' W 074°05'0 0.0
2017-Dec-13 14:59N 40°40' W 074°05'0 0.0
2017-Dec-13 14:29N 40°40' W 074°05'0 0.0
2017-Dec-13 13:59N 40°40' W 074°05'0 0.0
2017-Dec-13 13:26N 40°40' W 074°05'0 0.0
2017-Dec-13 12:59N 40°40' W 074°05'0 0.0
2017-Dec-13 12:29N 40°40' W 074°05'0 0.0
2017-Dec-13 11:59N 40°40' W 074°05'0 0.0
2017-Dec-13 11:29N 40°40' W 074°05'0 0.0
2017-Dec-13 10:59N 40°40' W 074°05'0 0.0
2017-Dec-13 10:29N 40°40' W 074°05'0 0.0
2017-Dec-13 09:59N 40°40' W 074°05'0 0.0
2017-Dec-13 09:29N 40°40' W 074°05'0 0.0
2017-Dec-13 08:59N 40°40' W 074°05'0 0.0
2017-Dec-13 08:29N 40°40' W 074°05'0 0.0
2017-Dec-13 07:59N 40°40' W 074°05'0 0.0
2017-Dec-13 07:29N 40°40' W 074°05'0 0.0
2017-Dec-13 06:59N 40°40' W 074°05'0 0.0
2017-Dec-13 06:29N 40°40' W 074°05'0 0.0
2017-Dec-13 05:59N 40°40' W 074°05'0 0.0
2017-Dec-13 05:29N 40°40' W 074°05'0 0.0
2017-Dec-13 04:59N 40°40' W 074°05'0 0.0
2017-Dec-13 04:29N 40°40' W 074°05'0 0.0
2017-Dec-13 03:59N 40°40' W 074°05'0 0.0
2017-Dec-13 03:29N 40°40' W 074°05'0 0.0
2017-Dec-13 02:59N 40°40' W 074°05'0 0.0
2017-Dec-13 02:29N 40°40' W 074°05'0 0.0
2017-Dec-13 01:59N 40°40' W 074°05'0 0.0
2017-Dec-13 01:29N 40°40' W 074°05'0 0.0
2017-Dec-13 00:59N 40°40' W 074°05'0 0.0
2017-Dec-13 00:29N 40°40' W 074°05'0 0.0
2017-Dec-12 23:59N 40°40' W 074°05'0 0.0
2017-Dec-12 23:29N 40°40' W 074°05'0 0.0
2017-Dec-12 22:59N 40°40' W 074°05'0 0.0
2017-Dec-12 22:29N 40°40' W 074°05'0 0.0
2017-Dec-12 21:59N 40°40' W 074°05'0 0.0
2017-Dec-12 21:29N 40°40' W 074°05'0 0.0
2017-Dec-12 20:59N 40°40' W 074°05'0 0.0
2017-Dec-12 20:29N 40°40' W 074°05'0 0.0
2017-Dec-12 19:59N 40°40' W 074°05'0 0.0
2017-Dec-12 19:29N 40°40' W 074°05'0 0.0
2017-Dec-12 18:59N 40°40' W 074°05'0 0.0
2017-Dec-12 18:29N 40°40' W 074°05'0 0.0
2017-Dec-12 17:59N 40°40' W 074°05'0 0.0
2017-Dec-12 17:29N 40°40' W 074°05'0 0.0
2017-Dec-12 16:59N 40°40' W 074°05'0 0.0
2017-Dec-12 16:29N 40°40' W 074°05'0 0.0
2017-Dec-12 15:59N 40°40' W 074°05'0 0.0
2017-Dec-12 15:29N 40°40' W 074°05'0 0.0
2017-Dec-12 14:56N 40°40' W 074°05'0 0.0
2017-Dec-12 14:29N 40°40' W 074°05'0 0.0
2017-Dec-12 13:59N 40°40' W 074°05'0 0.0
2017-Dec-12 13:29N 40°40' W 074°05'0 0.0
2017-Dec-12 12:59N 40°40' W 074°05'0 0.0
2017-Dec-12 12:29N 40°40' W 074°05'0 0.0
2017-Dec-12 11:59N 40°40' W 074°05'0 0.0
2017-Dec-12 11:29N 40°40' W 074°05'0 0.0
2017-Dec-12 10:59N 40°40' W 074°05'0 0.0
2017-Dec-12 10:29N 40°40' W 074°05'0 0.0
2017-Dec-12 09:56N 40°40' W 074°05'0 0.0
2017-Dec-12 09:29N 40°40' W 074°05'0 0.0
2017-Dec-12 08:59N 40°40' W 074°05'0 0.0
2017-Dec-12 08:29N 40°40' W 074°05'0 0.0
2017-Dec-12 07:59N 40°40' W 074°05'0 0.0
2017-Dec-12 07:29N 40°40' W 074°05'0 0.0
2017-Dec-12 06:59N 40°40' W 074°05'0 0.0
2017-Dec-12 06:29N 40°40' W 074°05'0 0.0
2017-Dec-12 05:59N 40°40' W 074°05'0 0.0
2017-Dec-12 05:29N 40°40' W 074°05'0 0.0
2017-Dec-12 04:59N 40°40' W 074°05'0 0.0
2017-Dec-12 04:29N 40°40' W 074°05'0 0.0
2017-Dec-12 03:59N 40°40' W 074°05'0 0.0
2017-Dec-12 03:29N 40°40' W 074°05'0 0.0
2017-Dec-12 02:59N 40°40' W 074°05'0 0.0
2017-Dec-12 02:29N 40°40' W 074°05'0 0.0
2017-Dec-12 01:59N 40°40' W 074°05'0 0.0
2017-Dec-12 01:29N 40°40' W 074°05'0 0.0
2017-Dec-12 00:59N 40°40' W 074°05'0 0.0
2017-Dec-12 00:29N 40°40' W 074°05'0 0.0
2017-Dec-11 23:59N 40°40' W 074°05'0 0.0
2017-Dec-11 23:29N 40°40' W 074°05'0 0.0
2017-Dec-11 22:59N 40°40' W 074°05'0 0.3
2017-Dec-11 22:30N 40°40' W 074°05'2 3.5
2017-Dec-11 22:00N 40°39' W 074°03'3 6.9
2017-Dec-11 21:30N 40°36' W 074°02'510.3
2017-Dec-11 21:00N 40°31' W 073°59'510.1
2017-Dec-11 20:30N 40°29' W 073°53'4 8.7
2017-Dec-11 20:00N 40°28' W 073°48'3 5.7
2017-Dec-11 19:30N 40°26' W 073°45'3 4.7
2017-Dec-11 18:50N 40°24' W 073°42'3710.7
2017-Dec-11 15:24N 40°04' W 073°01'1720.7
2017-Dec-11 14:36N 39°54' W 072°43'422.7
2017-Dec-11 14:25N 39°53' W 072°38'  
2017-Dec-07 06:15N 40°48' W 029°13'821.0
2017-Dec-07 05:52N 40°46' W 029°02'2021.4
2017-Dec-07 04:56N 40°43' W 028°36'  
Track history (hours):
 
Tides and Currents Weather Stations Pressure Air Temp Water Temp Dewpoint Dewpoint Depression Visibility Wind Speed Wind Dir Waves Ship Positions

Hanjin Gwanseum

Last reported at 2017-Dec-15 22:58 UTC. Time now 2017-Dec-16 11:23 UTC.
Position N 36°49' W 075°47'.

Length 337 m; draft 11.8 m.

Type: Ship (hazmat cat D). MMSI: 477699600.

Date/timePositionNaut miles runAvg speedWind from/ knotsBaromVisibWave heightAir tempDewpointWater temp
2017-Dec-15 22:58N 36°49' W 075°47'5 9.8
2017-Dec-15 22:27N 36°52' W 075°52'4 9.9
2017-Dec-15 22:00N 36°55' W 075°56'5 9.8
2017-Dec-15 21:31N 36°57' W 076°01'815.0
2017-Dec-15 21:00N 36°59' W 076°10'714.0
2017-Dec-15 20:30N 36°59' W 076°19'4 7.3
2017-Dec-15 20:00N 36°56' W 076°20'0 0.2
2017-Dec-15 19:30N 36°56' W 076°20'0 0.0
2017-Dec-15 19:00N 36°56' W 076°20'0 0.0
2017-Dec-15 18:30N 36°56' W 076°20'0 0.0
2017-Dec-15 18:00N 36°56' W 076°20'0 0.0
2017-Dec-15 17:30N 36°56' W 076°20'0 0.0
2017-Dec-15 17:00N 36°56' W 076°20'0 0.0
2017-Dec-15 16:30N 36°56' W 076°20'0 0.0
2017-Dec-15 16:00N 36°56' W 076°20'0 0.0
2017-Dec-15 15:30N 36°56' W 076°20'0 0.0
2017-Dec-15 15:00N 36°56' W 076°20'0 0.0
2017-Dec-15 14:30N 36°56' W 076°20'0 0.0
2017-Dec-15 14:00N 36°56' W 076°20'0 0.0
2017-Dec-15 13:30N 36°56' W 076°20'0 0.0
2017-Dec-15 13:00N 36°56' W 076°20'0 0.0
2017-Dec-15 12:27N 36°56' W 076°20'0 0.0
2017-Dec-15 12:00N 36°56' W 076°20'0 0.0
2017-Dec-15 11:30N 36°56' W 076°20'0 0.0
2017-Dec-15 11:00N 36°56' W 076°20'0 0.0
2017-Dec-15 10:30N 36°56' W 076°20'0 0.0
2017-Dec-15 10:00N 36°56' W 076°20'0 0.0
2017-Dec-15 09:30N 36°56' W 076°20'0 0.0
2017-Dec-15 09:00N 36°56' W 076°20'0 0.0
2017-Dec-15 08:30N 36°56' W 076°20'0 0.0
2017-Dec-15 08:00N 36°56' W 076°20'0 0.0
2017-Dec-15 07:30N 36°56' W 076°20'0 0.0
2017-Dec-15 06:57N 36°56' W 076°20'0 0.0
2017-Dec-15 06:30N 36°56' W 076°20'0 0.0
2017-Dec-15 06:00N 36°56' W 076°20'0 0.0
2017-Dec-15 05:30N 36°56' W 076°20'0 0.0
2017-Dec-15 05:00N 36°56' W 076°20'0 0.0
2017-Dec-15 04:30N 36°56' W 076°20'0 0.0
2017-Dec-15 04:00N 36°56' W 076°20'0 0.0
2017-Dec-15 02:30N 36°56' W 076°20'6 4.3
2017-Dec-15 01:00N 37°00' W 076°14'816.4
2017-Dec-15 00:31N 36°58' W 076°05'18915.8
2017-Dec-14 12:32N 39°37' W 073°53'122.5
2017-Dec-14 12:30N 39°38' W 073°53'1222.3
2017-Dec-14 11:58N 39°50' W 073°53'2415.0
2017-Dec-14 10:23N 40°13' W 073°49'4 9.8
2017-Dec-14 09:57N 40°17' W 073°49'4 9.8
2017-Dec-14 09:30N 40°22' W 073°49'5 9.2
2017-Dec-14 09:00N 40°26' W 073°49'4 9.1
2017-Dec-14 08:30N 40°29' W 073°54'510.6
2017-Dec-14 08:00N 40°31' W 074°00'713.1
2017-Dec-14 07:30N 40°37' W 074°03'2 4.6
2017-Dec-14 07:00N 40°40' W 074°04'1 2.1
2017-Dec-14 06:29N 40°40' W 074°05'0 0.0
2017-Dec-14 05:59N 40°40' W 074°05'0 0.0
2017-Dec-14 05:29N 40°40' W 074°05'0 0.0
2017-Dec-14 04:59N 40°40' W 074°05'0 0.0
2017-Dec-14 04:29N 40°40' W 074°05'0 0.0
2017-Dec-14 03:59N 40°40' W 074°05'0 0.0
2017-Dec-14 03:29N 40°40' W 074°05'0 0.0
2017-Dec-14 02:56N 40°40' W 074°05'0 0.0
2017-Dec-14 02:29N 40°40' W 074°05'0 0.0
2017-Dec-14 01:59N 40°40' W 074°05'0 0.0
2017-Dec-14 01:23N 40°40' W 074°05'0 0.0
2017-Dec-14 00:59N 40°40' W 074°05'0 0.0
2017-Dec-14 00:29N 40°40' W 074°05'0 0.0
2017-Dec-13 23:59N 40°40' W 074°05'0 0.0
2017-Dec-13 23:29N 40°40' W 074°05'0 0.0
2017-Dec-13 22:59N 40°40' W 074°05'0 0.0
2017-Dec-13 22:26N 40°40' W 074°05'0 0.0
2017-Dec-13 21:59N 40°40' W 074°05'0 0.0
2017-Dec-13 21:29N 40°40' W 074°05'0 0.0
2017-Dec-13 20:59N 40°40' W 074°05'0 0.0
2017-Dec-13 20:29N 40°40' W 074°05'0 0.0
2017-Dec-13 19:59N 40°40' W 074°05'0 0.0
2017-Dec-13 19:29N 40°40' W 074°05'0 0.0
2017-Dec-13 18:59N 40°40' W 074°05'0 0.0
2017-Dec-13 18:23N 40°40' W 074°05'0 0.0
2017-Dec-13 17:56N 40°40' W 074°05'0 0.0
2017-Dec-13 17:29N 40°40' W 074°05'0 0.0
2017-Dec-13 16:56N 40°40' W 074°05'0 0.0
2017-Dec-13 16:29N 40°40' W 074°05'0 0.0
2017-Dec-13 15:59N 40°40' W 074°05'0 0.0
2017-Dec-13 15:29N 40°40' W 074°05'0 0.0
2017-Dec-13 14:59N 40°40' W 074°05'0 0.0
2017-Dec-13 14:29N 40°40' W 074°05'0 0.0
2017-Dec-13 13:59N 40°40' W 074°05'0 0.0
2017-Dec-13 13:26N 40°40' W 074°05'0 0.0
2017-Dec-13 12:59N 40°40' W 074°05'0 0.0
2017-Dec-13 12:29N 40°40' W 074°05'0 0.0
2017-Dec-13 11:59N 40°40' W 074°05'0 0.0
2017-Dec-13 11:29N 40°40' W 074°05'0 0.0
2017-Dec-13 10:59N 40°40' W 074°05'0 0.0
2017-Dec-13 10:29N 40°40' W 074°05'0 0.0
2017-Dec-13 09:59N 40°40' W 074°05'0 0.0
2017-Dec-13 09:29N 40°40' W 074°05'0 0.0
2017-Dec-13 08:59N 40°40' W 074°05'0 0.0
2017-Dec-13 08:29N 40°40' W 074°05'0 0.0
2017-Dec-13 07:59N 40°40' W 074°05'0 0.0
2017-Dec-13 07:29N 40°40' W 074°05'0 0.0
2017-Dec-13 06:59N 40°40' W 074°05'0 0.0
2017-Dec-13 06:29N 40°40' W 074°05'0 0.0
2017-Dec-13 05:59N 40°40' W 074°05'0 0.0
2017-Dec-13 05:29N 40°40' W 074°05'0 0.0
2017-Dec-13 04:59N 40°40' W 074°05'0 0.0
2017-Dec-13 04:29N 40°40' W 074°05'0 0.0
2017-Dec-13 03:59N 40°40' W 074°05'0 0.0
2017-Dec-13 03:29N 40°40' W 074°05'0 0.0
2017-Dec-13 02:59N 40°40' W 074°05'0 0.0
2017-Dec-13 02:29N 40°40' W 074°05'0 0.0
2017-Dec-13 01:59N 40°40' W 074°05'0 0.0
2017-Dec-13 01:29N 40°40' W 074°05'0 0.0
2017-Dec-13 00:59N 40°40' W 074°05'0 0.0
2017-Dec-13 00:29N 40°40' W 074°05'0 0.0
2017-Dec-12 23:59N 40°40' W 074°05'0 0.0
2017-Dec-12 23:29N 40°40' W 074°05'0 0.0
2017-Dec-12 22:59N 40°40' W 074°05'0 0.0
2017-Dec-12 22:29N 40°40' W 074°05'0 0.0
2017-Dec-12 21:59N 40°40' W 074°05'0 0.0
2017-Dec-12 21:29N 40°40' W 074°05'0 0.0
2017-Dec-12 20:59N 40°40' W 074°05'0 0.0
2017-Dec-12 20:29N 40°40' W 074°05'0 0.0
2017-Dec-12 19:59N 40°40' W 074°05'0 0.0
2017-Dec-12 19:29N 40°40' W 074°05'0 0.0
2017-Dec-12 18:59N 40°40' W 074°05'0 0.0
2017-Dec-12 18:29N 40°40' W 074°05'0 0.0
2017-Dec-12 17:59N 40°40' W 074°05'0 0.0
2017-Dec-12 17:29N 40°40' W 074°05'0 0.0
2017-Dec-12 16:59N 40°40' W 074°05'0 0.0
2017-Dec-12 16:29N 40°40' W 074°05'0 0.0
2017-Dec-12 15:59N 40°40' W 074°05'0 0.0
2017-Dec-12 15:29N 40°40' W 074°05'0 0.0
2017-Dec-12 14:56N 40°40' W 074°05'0 0.0
2017-Dec-12 14:29N 40°40' W 074°05'0 0.0
2017-Dec-12 13:59N 40°40' W 074°05'0 0.0
2017-Dec-12 13:29N 40°40' W 074°05'0 0.0
2017-Dec-12 12:59N 40°40' W 074°05'0 0.0
2017-Dec-12 12:29N 40°40' W 074°05'0 0.0
2017-Dec-12 11:59N 40°40' W 074°05'0 0.0
2017-Dec-12 11:29N 40°40' W 074°05'0 0.0
2017-Dec-12 10:59N 40°40' W 074°05'0 0.0
2017-Dec-12 10:29N 40°40' W 074°05'0 0.0
2017-Dec-12 09:56N 40°40' W 074°05'0 0.0
2017-Dec-12 09:29N 40°40' W 074°05'0 0.0
2017-Dec-12 08:59N 40°40' W 074°05'0 0.0
2017-Dec-12 08:29N 40°40' W 074°05'0 0.0
2017-Dec-12 07:59N 40°40' W 074°05'0 0.0
2017-Dec-12 07:29N 40°40' W 074°05'0 0.0
2017-Dec-12 06:59N 40°40' W 074°05'0 0.0
2017-Dec-12 06:29N 40°40' W 074°05'0 0.0
2017-Dec-12 05:59N 40°40' W 074°05'0 0.0
2017-Dec-12 05:29N 40°40' W 074°05'0 0.0
2017-Dec-12 04:59N 40°40' W 074°05'0 0.0
2017-Dec-12 04:29N 40°40' W 074°05'0 0.0
2017-Dec-12 03:59N 40°40' W 074°05'0 0.0
2017-Dec-12 03:29N 40°40' W 074°05'0 0.0
2017-Dec-12 02:59N 40°40' W 074°05'0 0.0
2017-Dec-12 02:29N 40°40' W 074°05'0 0.0
2017-Dec-12 01:59N 40°40' W 074°05'0 0.0
2017-Dec-12 01:29N 40°40' W 074°05'0 0.0
2017-Dec-12 00:59N 40°40' W 074°05'0 0.0
2017-Dec-12 00:29N 40°40' W 074°05'0 0.0
2017-Dec-11 23:59N 40°40' W 074°05'0 0.0
2017-Dec-11 23:29N 40°40' W 074°05'0 0.0
2017-Dec-11 22:59N 40°40' W 074°05'0 0.3
2017-Dec-11 22:30N 40°40' W 074°05'2 3.5
2017-Dec-11 22:00N 40°39' W 074°03'3 6.9
2017-Dec-11 21:30N 40°36' W 074°02'510.3
2017-Dec-11 21:00N 40°31' W 073°59'510.1
2017-Dec-11 20:30N 40°29' W 073°53'4 8.7
2017-Dec-11 20:00N 40°28' W 073°48'3 5.7
2017-Dec-11 19:30N 40°26' W 073°45'3 4.7
2017-Dec-11 18:50N 40°24' W 073°42'3710.7
2017-Dec-11 15:24N 40°04' W 073°01'1720.7
2017-Dec-11 14:36N 39°54' W 072°43'422.7
2017-Dec-11 14:25N 39°53' W 072°38'  
2017-Dec-07 06:15N 40°48' W 029°13'821.0
2017-Dec-07 05:52N 40°46' W 029°02'2021.4
2017-Dec-07 04:56N 40°43' W 028°36'  

Dump ship's entire track history